createdAt,value
2018-01-28T00:01:08.675Z,0
2018-01-28T00:02:18.629Z,0
2018-01-28T00:03:28.637Z,0
2018-01-28T00:04:38.349Z,0
2018-01-28T00:05:47.769Z,0
2018-01-28T00:06:57.721Z,0
2018-01-28T00:08:07.660Z,0
2018-01-28T00:09:17.621Z,0
2018-01-28T00:10:27.626Z,0
2018-01-28T00:11:37.316Z,0
2018-01-28T00:12:47.001Z,0
2018-01-28T00:13:56.943Z,0
2018-01-28T00:15:06.642Z,0
2018-01-28T00:16:16.594Z,0
2018-01-28T00:17:26.542Z,0
2018-01-28T00:18:36.490Z,0
2018-01-28T00:19:46.436Z,0
2018-01-28T00:20:56.374Z,0
2018-01-28T00:22:06.329Z,0
2018-01-28T00:23:16.288Z,0
2018-01-28T00:24:26.255Z,0
2018-01-28T00:25:35.947Z,0
2018-01-28T00:26:45.909Z,0
2018-01-28T00:27:55.622Z,0
2018-01-28T00:29:05.581Z,0
2018-01-28T00:30:15.281Z,0
2018-01-28T00:31:25.236Z,0
2018-01-28T00:32:35.176Z,0
2018-01-28T00:33:45.124Z,0
2018-01-28T00:34:55.079Z,0
2018-01-28T00:36:04.777Z,0
2018-01-28T00:37:14.748Z,0
2018-01-28T00:38:24.701Z,0
2018-01-28T00:39:34.381Z,0
2018-01-28T00:40:44.326Z,0
2018-01-28T00:41:54.280Z,0
2018-01-28T00:43:03.976Z,0
2018-01-28T00:44:13.671Z,0
2018-01-28T00:45:23.367Z,0
2018-01-28T00:46:33.060Z,0
2018-01-28T00:47:43.023Z,0
2018-01-28T00:48:52.978Z,0
2018-01-28T00:50:02.919Z,0
2018-01-28T00:51:12.365Z,0
2018-01-28T00:52:22.304Z,0
2018-01-28T00:53:32.250Z,0
2018-01-28T00:54:42.196Z,0
2018-01-28T00:55:51.880Z,0
2018-01-28T00:57:01.832Z,0
2018-01-28T00:58:11.792Z,0
2018-01-28T00:59:21.750Z,0
2018-01-28T01:00:31.724Z,0
2018-01-28T01:01:41.421Z,0
2018-01-28T01:02:50.862Z,0
2018-01-28T01:04:00.814Z,0
2018-01-28T01:05:10.761Z,0
2018-01-28T01:06:20.710Z,0
2018-01-28T01:07:30.391Z,0
2018-01-28T01:08:40.377Z,0
2018-01-28T01:09:49.820Z,0
2018-01-28T01:10:59.777Z,0
2018-01-28T01:12:09.711Z,0
2018-01-28T01:13:19.398Z,0
2018-01-28T01:14:29.352Z,0
2018-01-28T01:15:39.305Z,0
2018-01-28T01:16:49.009Z,0
2018-01-28T01:17:59.025Z,0
2018-01-28T01:19:08.718Z,0
2018-01-28T01:20:18.407Z,0
2018-01-28T01:21:28.391Z,0
2018-01-28T01:22:38.341Z,0
2018-01-28T01:23:48.292Z,0
2018-01-28T01:24:57.986Z,0
2018-01-28T01:26:07.681Z,0
2018-01-28T01:27:17.618Z,0
2018-01-28T01:28:27.304Z,0
2018-01-28T01:29:37.244Z,0
2018-01-28T01:30:47.190Z,0
2018-01-28T01:31:57.154Z,0
2018-01-28T01:33:06.855Z,0
2018-01-28T01:34:16.801Z,0
2018-01-28T01:35:26.492Z,0
2018-01-28T01:36:36.185Z,0
2018-01-28T01:37:46.137Z,0
2018-01-28T01:38:56.072Z,0
2018-01-28T01:40:06.003Z,0
2018-01-28T01:41:15.933Z,0
2018-01-28T01:42:25.623Z,0
2018-01-28T01:43:35.321Z,0
2018-01-28T01:44:45.277Z,0
2018-01-28T01:45:55.236Z,0
2018-01-28T01:47:05.193Z,0
2018-01-28T01:48:15.135Z,0
2018-01-28T01:49:25.091Z,0
2018-01-28T01:50:35.053Z,0
2018-01-28T01:51:44.741Z,0
2018-01-28T01:52:54.742Z,0
2018-01-28T01:54:04.707Z,0
2018-01-28T01:55:14.397Z,0
2018-01-28T01:56:24.385Z,0
2018-01-28T01:57:34.323Z,0
2018-01-28T01:58:44.264Z,0
2018-01-28T01:59:54.218Z,0
2018-01-28T02:01:04.158Z,0
2018-01-28T02:02:14.151Z,0
2018-01-28T02:03:24.090Z,0
2018-01-28T02:04:34.038Z,0
2018-01-28T02:05:43.746Z,0
2018-01-28T02:06:53.699Z,0
2018-01-28T02:08:03.634Z,0
2018-01-28T02:09:13.070Z,0
2018-01-28T02:10:23.019Z,0
2018-01-28T02:11:32.964Z,0
2018-01-28T02:12:42.921Z,0
2018-01-28T02:13:52.917Z,0
2018-01-28T02:15:02.865Z,0
2018-01-28T02:16:12.819Z,0
2018-01-28T02:17:22.783Z,0
2018-01-28T02:18:32.469Z,0
2018-01-28T02:19:42.152Z,0
2018-01-28T02:20:52.096Z,0
2018-01-28T02:22:01.786Z,0
2018-01-28T02:23:11.491Z,0
2018-01-28T02:24:21.440Z,0
2018-01-28T02:25:31.145Z,0
2018-01-28T02:26:40.858Z,0
2018-01-28T02:27:50.554Z,0
2018-01-28T02:29:00.513Z,0
2018-01-28T02:30:10.474Z,0
2018-01-28T02:31:20.408Z,0
2018-01-28T02:32:30.119Z,0
2018-01-28T02:33:39.826Z,0
2018-01-28T02:34:49.520Z,0
2018-01-28T02:35:59.477Z,0
2018-01-28T02:37:09.416Z,0
2018-01-28T02:38:19.363Z,0
2018-01-28T02:39:29.051Z,0
2018-01-28T02:40:38.737Z,0
2018-01-28T02:41:48.685Z,0
2018-01-28T02:42:58.637Z,0
2018-01-28T02:44:08.591Z,0
2018-01-28T02:45:18.544Z,0
2018-01-28T02:46:28.243Z,0
2018-01-28T02:47:37.934Z,0
2018-01-28T02:48:47.905Z,0
2018-01-28T02:49:57.843Z,0
2018-01-28T02:51:07.801Z,0
2018-01-28T02:52:17.502Z,0
2018-01-28T02:53:27.457Z,0
2018-01-28T02:54:37.400Z,0
2018-01-28T02:55:47.346Z,0
2018-01-28T02:56:57.047Z,0
2018-01-28T02:58:06.993Z,0
2018-01-28T02:59:16.936Z,0
2018-01-28T03:00:26.878Z,0
2018-01-28T03:01:36.559Z,0
2018-01-28T03:02:46.529Z,0
2018-01-28T03:03:56.469Z,0
2018-01-28T03:05:06.408Z,0
2018-01-28T03:06:16.343Z,0
2018-01-28T03:07:26.308Z,0
2018-01-28T03:08:36.246Z,0
2018-01-28T03:09:46.197Z,0
2018-01-28T03:10:56.138Z,0
2018-01-28T03:12:06.088Z,0
2018-01-28T03:13:15.773Z,0
2018-01-28T03:14:25.463Z,0
2018-01-28T03:15:35.406Z,0
2018-01-28T03:16:45.356Z,0
2018-01-28T03:17:55.295Z,0
2018-01-28T03:19:05.237Z,0
2018-01-28T03:20:14.919Z,0
2018-01-28T03:21:24.867Z,0
2018-01-28T03:22:34.301Z,0
2018-01-28T03:23:43.990Z,0
2018-01-28T03:24:53.947Z,0
2018-01-28T03:26:03.633Z,0
2018-01-28T03:27:13.594Z,0
2018-01-28T03:28:23.284Z,0
2018-01-28T03:29:33.229Z,0
2018-01-28T03:30:42.936Z,0
2018-01-28T03:31:52.879Z,0
2018-01-28T03:33:02.559Z,0
2018-01-28T03:34:12.255Z,0
2018-01-28T03:35:22.199Z,0
2018-01-28T03:36:31.891Z,0
2018-01-28T03:37:41.835Z,0
2018-01-28T03:38:51.519Z,0
2018-01-28T03:40:01.463Z,0
2018-01-28T03:41:11.407Z,0
2018-01-28T03:42:21.101Z,0
2018-01-28T03:43:30.799Z,0
2018-01-28T03:44:40.745Z,0
2018-01-28T03:45:50.674Z,0
2018-01-28T03:47:00.659Z,0
2018-01-28T03:48:10.348Z,0
2018-01-28T03:49:20.045Z,0
2018-01-28T03:50:29.996Z,0
2018-01-28T03:51:39.938Z,0
2018-01-28T03:52:49.886Z,0
2018-01-28T03:53:59.823Z,0
2018-01-28T03:55:09.768Z,0
2018-01-28T03:56:19.724Z,0
2018-01-28T03:57:29.711Z,0
2018-01-28T03:58:39.390Z,0
2018-01-28T03:59:49.331Z,0
2018-01-28T04:00:59.014Z,0
2018-01-28T04:02:08.965Z,0
2018-01-28T04:03:18.918Z,0
2018-01-28T04:04:28.856Z,0
2018-01-28T04:05:38.805Z,0
2018-01-28T04:06:48.745Z,0
2018-01-28T04:07:58.420Z,0
2018-01-28T04:09:08.376Z,0
2018-01-28T04:10:18.312Z,0
2018-01-28T04:11:28.253Z,0
2018-01-28T04:12:38.194Z,0
2018-01-28T04:13:48.142Z,0
2018-01-28T04:14:57.559Z,0
2018-01-28T04:16:07.508Z,0
2018-01-28T04:17:17.440Z,0
2018-01-28T04:18:27.124Z,0
2018-01-28T04:19:37.122Z,0
2018-01-28T04:20:47.057Z,0
2018-01-28T04:21:56.994Z,0
2018-01-28T04:23:06.958Z,0
2018-01-28T04:24:16.893Z,0
2018-01-28T04:25:26.838Z,0
2018-01-28T04:26:36.784Z,0
2018-01-28T04:27:46.728Z,0
2018-01-28T04:28:56.673Z,0
2018-01-28T04:30:06.354Z,0
2018-01-28T04:31:16.302Z,0
2018-01-28T04:32:26.255Z,0
2018-01-28T04:33:36.198Z,0
2018-01-28T04:34:46.137Z,0
2018-01-28T04:35:56.073Z,0
2018-01-28T04:37:05.758Z,0
2018-01-28T04:38:15.714Z,0
2018-01-28T04:39:25.408Z,0
2018-01-28T04:40:35.090Z,0
2018-01-28T04:41:45.031Z,0
2018-01-28T04:42:54.980Z,0
2018-01-28T04:44:04.920Z,0
2018-01-28T04:45:14.859Z,0
2018-01-28T04:46:24.791Z,0
2018-01-28T04:47:34.468Z,0
2018-01-28T04:48:44.413Z,0
2018-01-28T04:49:54.102Z,0
2018-01-28T04:51:04.047Z,0
2018-01-28T04:52:14.002Z,0
2018-01-28T04:53:23.950Z,0
2018-01-28T04:54:33.890Z,0
2018-01-28T04:55:43.829Z,0
2018-01-28T04:56:53.773Z,0
2018-01-28T04:58:03.718Z,0
2018-01-28T04:59:13.401Z,0
2018-01-28T05:00:23.340Z,0
2018-01-28T05:01:33.295Z,0
2018-01-28T05:02:43.240Z,0
2018-01-28T05:03:53.181Z,0
2018-01-28T05:05:03.124Z,0
2018-01-28T05:06:13.096Z,0
2018-01-28T05:07:23.041Z,0
2018-01-28T05:08:32.976Z,0
2018-01-28T05:09:42.651Z,0
2018-01-28T05:10:52.346Z,0
2018-01-28T05:12:02.050Z,0
2018-01-28T05:13:12.005Z,0
2018-01-28T05:14:21.945Z,0
2018-01-28T05:15:31.993Z,0
2018-01-28T05:16:41.430Z,0
2018-01-28T05:17:51.360Z,0
2018-01-28T05:19:01.061Z,0
2018-01-28T05:20:11.000Z,0
2018-01-28T05:21:20.679Z,0
2018-01-28T05:22:30.616Z,0
2018-01-28T05:23:40.572Z,0
2018-01-28T05:24:50.501Z,0
2018-01-28T05:26:00.453Z,0
2018-01-28T05:27:10.409Z,0
2018-01-28T05:28:20.356Z,0
2018-01-28T05:29:30.044Z,0
2018-01-28T05:30:39.733Z,0
2018-01-28T05:31:49.412Z,0
2018-01-28T05:32:59.350Z,0
2018-01-28T05:34:09.040Z,0
2018-01-28T05:35:19.000Z,0
2018-01-28T05:36:28.174Z,0
2018-01-28T05:37:38.182Z,0
2018-01-28T05:38:48.122Z,0
2018-01-28T05:39:58.066Z,0
2018-01-28T05:41:08.005Z,0
2018-01-28T05:42:17.954Z,0
2018-01-28T05:43:27.908Z,0
2018-01-28T05:44:37.858Z,0
2018-01-28T05:45:47.807Z,0
2018-01-28T05:46:57.742Z,0
2018-01-28T05:48:07.169Z,0
2018-01-28T05:49:16.855Z,0
2018-01-28T05:50:26.793Z,0
2018-01-28T05:51:36.539Z,0
2018-01-28T05:52:46.221Z,0
2018-01-28T05:53:56.159Z,0
2018-01-28T05:55:05.850Z,0
2018-01-28T05:56:15.794Z,0
2018-01-28T05:57:25.737Z,0
2018-01-28T05:58:35.167Z,0
2018-01-28T05:59:44.852Z,0
2018-01-28T06:00:54.804Z,0
2018-01-28T06:02:04.251Z,0
2018-01-28T06:03:13.948Z,0
2018-01-28T06:04:23.628Z,0
2018-01-28T06:05:33.322Z,0
2018-01-28T06:06:43.264Z,0
2018-01-28T06:07:52.998Z,0
2018-01-28T06:09:02.945Z,0
2018-01-28T06:10:12.908Z,0
2018-01-28T06:11:22.861Z,0
2018-01-28T06:12:32.548Z,0
2018-01-28T06:13:42.493Z,0
2018-01-28T06:14:52.189Z,0
2018-01-28T06:16:02.150Z,0
2018-01-28T06:17:12.100Z,0
2018-01-28T06:18:22.042Z,0
2018-01-28T06:19:31.727Z,0
2018-01-28T06:20:41.399Z,0
2018-01-28T06:21:51.345Z,0
2018-01-28T06:23:01.292Z,0
2018-01-28T06:24:11.256Z,0
2018-01-28T06:25:20.948Z,0
2018-01-28T06:26:30.634Z,0
2018-01-28T06:27:40.589Z,0
2018-01-28T06:28:50.530Z,0
2018-01-28T06:30:00.469Z,0
2018-01-28T06:31:10.416Z,0
2018-01-28T06:32:20.367Z,0
2018-01-28T06:33:30.058Z,0
2018-01-28T06:34:39.746Z,0
2018-01-28T06:35:49.444Z,0
2018-01-28T06:36:59.124Z,0
2018-01-28T06:38:08.798Z,0
2018-01-28T06:39:18.736Z,0
2018-01-28T06:40:28.675Z,0
2018-01-28T06:41:38.375Z,0
2018-01-28T06:42:48.318Z,0
2018-01-28T06:43:58.008Z,0
2018-01-28T06:45:07.956Z,0
2018-01-28T06:46:17.390Z,0
2018-01-28T06:47:27.336Z,0
2018-01-28T06:48:37.340Z,0
2018-01-28T06:49:47.284Z,0
2018-01-28T06:50:56.968Z,0
2018-01-28T06:52:06.653Z,0
2018-01-28T06:53:16.654Z,0
2018-01-28T06:54:26.591Z,0
2018-01-28T06:55:36.535Z,0
2018-01-28T06:56:46.476Z,0
2018-01-28T06:57:56.152Z,0
2018-01-28T06:59:06.093Z,0
2018-01-28T07:00:15.978Z,0
2018-01-28T07:01:25.922Z,0
2018-01-28T07:02:35.905Z,0
2018-01-28T07:03:45.851Z,0
2018-01-28T07:04:55.797Z,5
2018-01-28T07:06:05.743Z,5
2018-01-28T07:07:15.683Z,5
2018-01-28T07:08:25.364Z,5
2018-01-28T07:09:35.062Z,5
2018-01-28T07:10:45.020Z,5
2018-01-28T07:11:55.035Z,5
2018-01-28T07:13:04.979Z,10
2018-01-28T07:14:14.665Z,10
2018-01-28T07:15:24.603Z,10
2018-01-28T07:16:34.543Z,10
2018-01-28T07:17:44.489Z,10
2018-01-28T07:18:54.188Z,10
2018-01-28T07:20:03.884Z,5
2018-01-28T07:21:13.839Z,5
2018-01-28T07:22:23.845Z,10
2018-01-28T07:23:33.958Z,10
2018-01-28T07:24:43.386Z,10
2018-01-28T07:25:52.564Z,10
2018-01-28T07:27:02.567Z,10
2018-01-28T07:28:12.502Z,10
2018-01-28T07:29:22.456Z,10
2018-01-28T07:30:32.133Z,10
2018-01-28T07:31:41.309Z,5
2018-01-28T07:32:50.992Z,5
2018-01-28T07:34:00.937Z,10
2018-01-28T07:35:11.033Z,10
2018-01-28T07:36:20.984Z,10
2018-01-28T07:37:30.415Z,10
2018-01-28T07:38:40.360Z,10
2018-01-28T07:39:50.050Z,10
2018-01-28T07:40:59.748Z,10
2018-01-28T07:42:09.594Z,10
2018-01-28T07:43:19.626Z,15
2018-01-28T07:44:29.563Z,10
2018-01-28T07:45:38.995Z,15
2018-01-28T07:46:48.675Z,15
2018-01-28T07:47:58.624Z,15
2018-01-28T07:49:08.562Z,15
2018-01-28T07:50:18.524Z,25
2018-01-28T07:51:28.487Z,30
2018-01-28T07:52:38.443Z,30
2018-01-28T07:53:48.384Z,25
2018-01-28T07:54:58.061Z,25
2018-01-28T07:56:07.997Z,25
2018-01-28T07:57:17.947Z,20
2018-01-28T07:58:27.898Z,20
2018-01-28T07:59:37.853Z,20
2018-01-28T08:00:47.300Z,25
2018-01-28T08:01:57.280Z,25
2018-01-28T08:03:07.232Z,25
2018-01-28T08:04:17.181Z,30
2018-01-28T08:05:27.138Z,40
2018-01-28T08:06:36.827Z,50
2018-01-28T08:07:46.524Z,35
2018-01-28T08:08:56.475Z,30
2018-01-28T08:10:06.421Z,35
2018-01-28T08:11:15.843Z,50
2018-01-28T08:12:25.540Z,55
2018-01-28T08:13:35.498Z,35
2018-01-28T08:14:45.446Z,50
2018-01-28T08:15:55.147Z,55
2018-01-28T08:17:05.090Z,50
2018-01-28T08:18:15.040Z,50
2018-01-28T08:19:24.983Z,50
2018-01-28T08:20:34.924Z,75
2018-01-28T08:21:44.925Z,80
2018-01-28T08:22:54.874Z,80
2018-01-28T08:24:04.827Z,95
2018-01-28T08:25:14.774Z,90
2018-01-28T08:26:24.726Z,105
2018-01-28T08:27:34.672Z,90
2018-01-28T08:28:44.609Z,65
2018-01-28T08:29:54.572Z,55
2018-01-28T08:31:04.530Z,60
2018-01-28T08:32:14.474Z,50
2018-01-28T08:33:24.505Z,55
2018-01-28T08:34:34.255Z,50
2018-01-28T08:35:43.951Z,45
2018-01-28T08:36:53.637Z,40
2018-01-28T08:38:03.315Z,30
2018-01-28T08:39:13.262Z,30
2018-01-28T08:40:22.949Z,35
2018-01-28T08:41:32.390Z,35
2018-01-28T08:42:42.075Z,30
2018-01-28T08:43:52.040Z,35
2018-01-28T08:45:02.281Z,40
2018-01-28T08:46:12.267Z,50
2018-01-28T08:47:22.224Z,60
2018-01-28T08:48:32.158Z,65
2018-01-28T08:49:41.605Z,65
2018-01-28T08:50:51.580Z,70
2018-01-28T08:52:01.532Z,60
2018-01-28T08:53:11.483Z,70
2018-01-28T08:54:21.176Z,75
2018-01-28T08:55:30.882Z,75
2018-01-28T08:56:40.828Z,80
2018-01-28T08:57:50.521Z,85
2018-01-28T08:59:00.479Z,85
2018-01-28T09:00:10.161Z,75
2018-01-28T09:01:20.099Z,75
2018-01-28T09:02:30.041Z,100
2018-01-28T09:03:39.987Z,85
2018-01-28T09:04:49.678Z,85
2018-01-28T09:05:59.679Z,150
2018-01-28T09:07:09.363Z,135
2018-01-28T09:08:18.811Z,140
2018-01-28T09:09:28.514Z,125
2018-01-28T09:10:38.471Z,130
2018-01-28T09:11:48.421Z,130
2018-01-28T09:12:58.366Z,120
2018-01-28T09:14:08.056Z,125
2018-01-28T09:15:18.021Z,150
2018-01-28T09:16:27.972Z,195
2018-01-28T09:17:37.416Z,170
2018-01-28T09:18:47.381Z,150
2018-01-28T09:19:57.126Z,135
2018-01-28T09:21:06.839Z,145
2018-01-28T09:22:16.818Z,145
2018-01-28T09:23:26.775Z,145
2018-01-28T09:24:36.469Z,160
2018-01-28T09:25:46.168Z,160
2018-01-28T09:26:56.133Z,145
2018-01-28T09:28:06.072Z,160
2018-01-28T09:29:16.020Z,165
2018-01-28T09:30:25.971Z,145
2018-01-28T09:31:35.476Z,150
2018-01-28T09:32:45.166Z,150
2018-01-28T09:33:54.918Z,175
2018-01-28T09:35:04.872Z,160
2018-01-28T09:36:14.836Z,165
2018-01-28T09:37:24.792Z,160
2018-01-28T09:38:34.465Z,170
2018-01-28T09:39:44.160Z,225
2018-01-28T09:40:54.112Z,215
2018-01-28T09:42:03.807Z,205
2018-01-28T09:43:13.749Z,225
2018-01-28T09:44:23.461Z,250
2018-01-28T09:45:33.436Z,310
2018-01-28T09:46:43.395Z,390
2018-01-28T09:47:53.345Z,655
2018-01-28T09:49:03.290Z,395
2018-01-28T09:50:13.243Z,420
2018-01-28T09:51:23.246Z,365
2018-01-28T09:52:33.192Z,435
2018-01-28T09:53:43.141Z,335
2018-01-28T09:54:52.841Z,405
2018-01-28T09:56:02.529Z,470
2018-01-28T09:57:12.495Z,425
2018-01-28T09:58:22.190Z,385
2018-01-28T09:59:32.141Z,345
2018-01-28T10:00:42.096Z,300
2018-01-28T10:01:51.803Z,295
2018-01-28T10:03:01.511Z,305
2018-01-28T10:04:11.213Z,345
2018-01-28T10:05:20.906Z,350
2018-01-28T10:06:30.618Z,335
2018-01-28T10:07:39.785Z,385
2018-01-28T10:08:49.727Z,405
2018-01-28T10:09:59.678Z,430
2018-01-28T10:11:09.626Z,385
2018-01-28T10:12:19.328Z,355
2018-01-28T10:13:29.279Z,375
2018-01-28T10:14:38.984Z,390
2018-01-28T10:15:48.925Z,410
2018-01-28T10:16:58.884Z,350
2018-01-28T10:18:08.832Z,400
2018-01-28T10:19:18.790Z,405
2018-01-28T10:20:28.505Z,445
2018-01-28T10:21:38.466Z,460
2018-01-28T10:22:48.421Z,465
2018-01-28T10:23:58.122Z,510
2018-01-28T10:25:08.065Z,555
2018-01-28T10:26:18.026Z,520
2018-01-28T10:27:27.977Z,510
2018-01-28T10:28:37.668Z,485
2018-01-28T10:29:47.842Z,440
2018-01-28T10:30:57.562Z,475
2018-01-28T10:32:07.254Z,515
2018-01-28T10:33:17.203Z,470
2018-01-28T10:34:26.892Z,455
2018-01-28T10:35:36.848Z,390
2018-01-28T10:36:46.800Z,380
2018-01-28T10:37:56.740Z,420
2018-01-28T10:39:06.720Z,410
2018-01-28T10:40:16.436Z,400
2018-01-28T10:41:26.388Z,435
2018-01-28T10:42:36.085Z,460
2018-01-28T10:43:46.043Z,455
2018-01-28T10:44:56.014Z,360
2018-01-28T10:46:05.962Z,335
2018-01-28T10:47:15.943Z,320
2018-01-28T10:48:25.903Z,295
2018-01-28T10:49:35.893Z,270
2018-01-28T10:50:45.849Z,245
2018-01-28T10:51:55.851Z,210
2018-01-28T10:53:05.830Z,195
2018-01-28T10:54:15.777Z,210
2018-01-28T10:55:25.735Z,250
2018-01-28T10:56:35.435Z,280
2018-01-28T10:57:45.401Z,230
2018-01-28T10:58:54.866Z,220
2018-01-28T11:00:04.847Z,230
2018-01-28T11:01:14.533Z,235
2018-01-28T11:02:24.482Z,230
2018-01-28T11:03:34.191Z,235
2018-01-28T11:04:43.899Z,210
2018-01-28T11:05:53.853Z,195
2018-01-28T11:07:03.816Z,240
2018-01-28T11:08:13.533Z,255
2018-01-28T11:09:23.478Z,245
2018-01-28T11:10:33.319Z,220
2018-01-28T11:11:43.272Z,215
2018-01-28T11:12:53.230Z,180
2018-01-28T11:14:03.180Z,180
2018-01-28T11:15:13.171Z,210
2018-01-28T11:16:23.133Z,225
2018-01-28T11:17:32.669Z,235
2018-01-28T11:18:42.615Z,205
2018-01-28T11:19:52.591Z,150
2018-01-28T11:21:02.539Z,150
2018-01-28T11:22:12.480Z,155
2018-01-28T11:23:22.436Z,150
2018-01-28T11:24:32.409Z,130
2018-01-28T11:25:42.372Z,145
2018-01-28T11:26:52.319Z,165
2018-01-28T11:28:02.020Z,195
2018-01-28T11:29:11.736Z,240
2018-01-28T11:30:21.708Z,285
2018-01-28T11:31:31.664Z,330
2018-01-28T11:32:41.711Z,355
2018-01-28T11:33:51.692Z,360
2018-01-28T11:35:01.664Z,285
2018-01-28T11:36:11.100Z,225
2018-01-28T11:37:21.038Z,185
2018-01-28T11:38:31.019Z,150
2018-01-28T11:39:40.960Z,140
2018-01-28T11:40:50.916Z,150
2018-01-28T11:42:00.875Z,170
2018-01-28T11:43:10.822Z,165
2018-01-28T11:44:20.527Z,190
2018-01-28T11:45:30.489Z,245
2018-01-28T11:46:40.202Z,220
2018-01-28T11:47:49.912Z,195
2018-01-28T11:48:59.621Z,165
2018-01-28T11:50:09.599Z,150
2018-01-28T11:51:19.553Z,175
2018-01-28T11:52:29.491Z,170
2018-01-28T11:53:39.525Z,150
2018-01-28T11:54:49.485Z,90
2018-01-28T11:55:59.217Z,70
2018-01-28T11:57:08.919Z,85
2018-01-28T11:58:18.933Z,90
2018-01-28T11:59:28.645Z,110
2018-01-28T12:00:38.611Z,95
2018-01-28T12:01:48.576Z,75
2018-01-28T12:02:58.528Z,70
2018-01-28T12:04:08.491Z,50
2018-01-28T12:05:18.530Z,70
2018-01-28T12:06:28.234Z,100
2018-01-28T12:07:38.201Z,105
2018-01-28T12:08:48.138Z,105
2018-01-28T12:09:57.839Z,90
2018-01-28T12:11:07.785Z,70
2018-01-28T12:12:17.733Z,75
2018-01-28T12:13:27.675Z,115
2018-01-28T12:14:37.374Z,160
2018-01-28T12:15:47.328Z,180
2018-01-28T12:16:57.300Z,185
2018-01-28T12:18:07.251Z,165
2018-01-28T12:19:17.201Z,170
2018-01-28T12:20:27.205Z,145
2018-01-28T12:21:37.163Z,115
2018-01-28T12:22:46.861Z,125
2018-01-28T12:23:56.927Z,125
2018-01-28T12:25:06.894Z,95
2018-01-28T12:26:16.588Z,65
2018-01-28T12:27:26.550Z,45
2018-01-28T12:28:36.514Z,30
2018-01-28T12:29:46.460Z,35
2018-01-28T12:30:56.424Z,40
2018-01-28T12:32:05.859Z,35
2018-01-28T12:33:15.802Z,35
2018-01-28T12:34:25.776Z,45
2018-01-28T12:35:35.521Z,55
2018-01-28T12:36:45.483Z,75
2018-01-28T12:37:55.435Z,80
2018-01-28T12:39:05.137Z,80
2018-01-28T12:40:15.094Z,80
2018-01-28T12:41:24.797Z,80
2018-01-28T12:42:34.745Z,80
2018-01-28T12:43:44.692Z,85
2018-01-28T12:44:54.641Z,95
2018-01-28T12:46:04.600Z,85
2018-01-28T12:47:14.547Z,95
2018-01-28T12:48:23.991Z,115
2018-01-28T12:49:33.477Z,130
2018-01-28T12:50:43.439Z,160
2018-01-28T12:51:53.386Z,180
2018-01-28T12:53:03.080Z,195
2018-01-28T12:54:13.039Z,200
2018-01-28T12:55:22.766Z,195
2018-01-28T12:56:32.462Z,210
2018-01-28T12:57:42.152Z,200
2018-01-28T12:58:51.836Z,180
2018-01-28T13:00:01.793Z,155
2018-01-28T13:01:11.777Z,150
2018-01-28T13:02:21.732Z,190
2018-01-28T13:03:31.674Z,200
2018-01-28T13:04:41.370Z,190
2018-01-28T13:05:51.329Z,165
2018-01-28T13:07:00.762Z,145
2018-01-28T13:08:10.468Z,135
2018-01-28T13:09:20.457Z,135
2018-01-28T13:10:30.420Z,135
2018-01-28T13:11:39.865Z,130
2018-01-28T13:12:49.817Z,110
2018-01-28T13:13:59.778Z,115
2018-01-28T13:15:09.739Z,105
2018-01-28T13:16:19.420Z,150
2018-01-28T13:17:29.180Z,160
2018-01-28T13:18:38.872Z,135
2018-01-28T13:19:48.824Z,130
2018-01-28T13:20:58.536Z,95
2018-01-28T13:22:08.506Z,100
2018-01-28T13:23:18.212Z,120
2018-01-28T13:24:28.166Z,135
2018-01-28T13:25:38.129Z,135
2018-01-28T13:26:48.076Z,165
2018-01-28T13:27:57.862Z,165
2018-01-28T13:29:07.552Z,135
2018-01-28T13:30:17.239Z,155
2018-01-28T13:31:26.931Z,210
2018-01-28T13:32:36.893Z,240
2018-01-28T13:33:46.591Z,225
2018-01-28T13:34:56.538Z,215
2018-01-28T13:36:06.233Z,215
2018-01-28T13:37:15.668Z,170
2018-01-28T13:38:25.355Z,175
2018-01-28T13:39:35.301Z,220
2018-01-28T13:40:45.007Z,200
2018-01-28T13:41:54.712Z,165
2018-01-28T13:43:04.425Z,155
2018-01-28T13:44:14.126Z,150
2018-01-28T13:45:24.087Z,195
2018-01-28T13:46:34.045Z,195
2018-01-28T13:47:43.747Z,175
2018-01-28T13:48:53.698Z,145
2018-01-28T13:50:03.646Z,155
2018-01-28T13:51:13.349Z,155
2018-01-28T13:52:23.056Z,140
2018-01-28T13:53:33.010Z,135
2018-01-28T13:54:42.702Z,140
2018-01-28T13:55:52.659Z,155
2018-01-28T13:57:02.364Z,170
2018-01-28T13:58:12.327Z,200
2018-01-28T13:59:22.271Z,235
2018-01-28T14:00:32.238Z,270
2018-01-28T14:01:42.204Z,285
2018-01-28T14:02:52.164Z,270
2018-01-28T14:04:01.862Z,255
2018-01-28T14:05:12.270Z,240
2018-01-28T14:06:22.212Z,225
2018-01-28T14:07:32.165Z,210
2018-01-28T14:08:42.119Z,185
2018-01-28T14:09:51.805Z,170
2018-01-28T14:11:01.770Z,155
2018-01-28T14:12:11.990Z,145
2018-01-28T14:13:21.934Z,140
2018-01-28T14:14:31.879Z,140
2018-01-28T14:15:41.571Z,130
2018-01-28T14:16:51.259Z,125
2018-01-28T14:18:00.969Z,120
2018-01-28T14:19:10.664Z,115
2018-01-28T14:20:20.643Z,115
2018-01-28T14:21:30.345Z,120
2018-01-28T14:22:40.303Z,120
2018-01-28T14:23:50.040Z,120
2018-01-28T14:25:00.050Z,120
2018-01-28T14:26:10.026Z,110
2018-01-28T14:27:19.720Z,105
2018-01-28T14:28:29.685Z,100
2018-01-28T14:29:39.383Z,95
2018-01-28T14:30:49.336Z,100
2018-01-28T14:31:59.040Z,90
2018-01-28T14:33:08.747Z,95
2018-01-28T14:34:18.716Z,95
2018-01-28T14:35:28.675Z,95
2018-01-28T14:36:38.396Z,95
2018-01-28T14:37:48.343Z,90
2018-01-28T14:38:58.047Z,90
2018-01-28T14:40:07.985Z,85
2018-01-28T14:41:17.675Z,90
2018-01-28T14:42:27.630Z,90
2018-01-28T14:43:37.586Z,90
2018-01-28T14:44:47.546Z,90
2018-01-28T14:45:57.497Z,90
2018-01-28T14:47:07.449Z,90
2018-01-28T14:48:17.153Z,90
2018-01-28T14:49:27.114Z,85
2018-01-28T14:50:36.809Z,80
2018-01-28T14:51:46.779Z,75
2018-01-28T14:52:56.736Z,80
2018-01-28T14:54:06.930Z,80
2018-01-28T14:55:16.885Z,80
2018-01-28T14:56:26.855Z,80
2018-01-28T14:57:36.884Z,80
2018-01-28T14:58:46.848Z,75
2018-01-28T14:59:56.802Z,70
2018-01-28T15:01:06.765Z,70
2018-01-28T15:02:16.722Z,70
2018-01-28T15:03:26.716Z,70
2018-01-28T15:04:36.680Z,70
2018-01-28T15:05:46.624Z,65
2018-01-28T15:06:56.320Z,60
2018-01-28T15:08:06.278Z,60
2018-01-28T15:09:16.238Z,60
2018-01-28T15:10:26.189Z,55
2018-01-28T15:11:35.888Z,50
2018-01-28T15:12:45.592Z,50
2018-01-28T15:13:55.311Z,45
2018-01-28T15:15:05.465Z,40
2018-01-28T15:16:15.437Z,40
2018-01-28T15:17:25.399Z,35
2018-01-28T15:18:35.366Z,35
2018-01-28T15:19:45.329Z,30
2018-01-28T15:20:55.296Z,30
2018-01-28T15:22:04.998Z,25
2018-01-28T15:23:14.957Z,25
2018-01-28T15:24:24.658Z,20
2018-01-28T15:25:34.389Z,20
2018-01-28T15:26:44.345Z,15
2018-01-28T15:27:54.034Z,15
2018-01-28T15:29:03.988Z,15
2018-01-28T15:30:13.942Z,15
2018-01-28T15:31:23.637Z,15
2018-01-28T15:32:33.081Z,10
2018-01-28T15:33:43.049Z,10
2018-01-28T15:34:52.749Z,10
2018-01-28T15:36:02.698Z,10
2018-01-28T15:37:12.670Z,10
2018-01-28T15:38:22.636Z,5
2018-01-28T15:39:32.571Z,5
2018-01-28T15:40:42.265Z,5
2018-01-28T15:41:51.963Z,5
2018-01-28T15:43:01.924Z,5
2018-01-28T15:44:11.620Z,5
2018-01-28T15:45:21.609Z,5
2018-01-28T15:46:31.309Z,5
2018-01-28T15:47:41.267Z,5
2018-01-28T15:48:50.964Z,5
2018-01-28T15:50:00.661Z,5
2018-01-28T15:51:10.623Z,5
2018-01-28T15:52:20.596Z,0
2018-01-28T15:53:30.559Z,0
2018-01-28T15:54:40.528Z,0
2018-01-28T15:55:50.501Z,0
2018-01-28T15:57:00.452Z,0
2018-01-28T15:58:10.158Z,0
2018-01-28T15:59:20.106Z,0
2018-01-28T16:00:30.061Z,0
2018-01-28T16:01:40.027Z,0
2018-01-28T16:02:49.728Z,0
2018-01-28T16:03:59.703Z,0
2018-01-28T16:05:09.699Z,0
2018-01-28T16:06:19.652Z,0
2018-01-28T16:07:29.624Z,0
2018-01-28T16:08:39.327Z,0
2018-01-28T16:09:49.541Z,0
2018-01-28T16:10:59.495Z,0
2018-01-28T16:12:09.466Z,0
2018-01-28T16:13:19.424Z,0
2018-01-28T16:14:29.389Z,0
2018-01-28T16:15:39.090Z,0
2018-01-28T16:16:49.039Z,0
2018-01-28T16:17:58.994Z,0
2018-01-28T16:19:08.950Z,0
2018-01-28T16:20:18.705Z,0
2018-01-28T16:21:28.737Z,0
2018-01-28T16:22:38.696Z,0
2018-01-28T16:23:48.666Z,0
2018-01-28T16:24:58.608Z,0
2018-01-28T16:26:07.810Z,0
2018-01-28T16:27:17.767Z,0
2018-01-28T16:28:27.711Z,0
2018-01-28T16:29:37.669Z,0
2018-01-28T16:30:47.404Z,0
2018-01-28T16:31:57.361Z,0
2018-01-28T16:33:07.063Z,0
2018-01-28T16:34:17.009Z,0
2018-01-28T16:35:26.714Z,0
2018-01-28T16:36:36.675Z,0
2018-01-28T16:37:46.378Z,0
2018-01-28T16:38:56.076Z,0
2018-01-28T16:40:06.035Z,0
2018-01-28T16:41:15.992Z,0
2018-01-28T16:42:25.981Z,0
2018-01-28T16:43:35.694Z,0
2018-01-28T16:44:45.448Z,0